createdAt,value
2018-03-06T00:00:41.486Z,83.51
2018-03-06T00:01:41.511Z,83.61
2018-03-06T00:02:41.528Z,83.32
2018-03-06T00:03:41.538Z,83.98
2018-03-06T00:04:41.561Z,83.80
2018-03-06T00:05:41.582Z,83.51
2018-03-06T00:06:41.598Z,83.51
2018-03-06T00:07:41.615Z,83.61
2018-03-06T00:08:41.634Z,83.70
2018-03-06T00:09:41.910Z,83.98
2018-03-06T00:10:41.667Z,83.80
2018-03-06T00:11:41.687Z,83.51
2018-03-06T00:12:41.707Z,84.27
2018-03-06T00:13:41.732Z,84.17
2018-03-06T00:14:41.746Z,83.89
2018-03-06T00:15:41.766Z,83.51
2018-03-06T00:16:41.782Z,83.42
2018-03-06T00:17:41.806Z,82.66
2018-03-06T00:18:41.828Z,82.18
2018-03-06T00:19:41.838Z,82.56
2018-03-06T00:20:41.859Z,82.47
2018-03-06T00:21:41.878Z,82.85
2018-03-06T00:22:41.899Z,82.28
2018-03-06T00:23:41.960Z,82.56
2018-03-06T00:24:41.938Z,83.23
2018-03-06T00:25:41.948Z,82.94
2018-03-06T00:26:41.971Z,82.85
2018-03-06T00:27:41.987Z,82.66
2018-03-06T00:28:42.008Z,82.75
2018-03-06T00:29:42.033Z,82.94
2018-03-06T00:30:42.043Z,82.56
2018-03-06T00:31:42.057Z,82.56
2018-03-06T00:32:42.083Z,82.47
2018-03-06T00:33:42.101Z,82.28
2018-03-06T00:34:42.115Z,82.66
2018-03-06T00:35:42.131Z,82.56
2018-03-06T00:36:42.157Z,82.85
2018-03-06T00:37:42.169Z,82.56
2018-03-06T00:38:42.192Z,83.04
2018-03-06T00:39:42.207Z,83.13
2018-03-06T00:40:42.229Z,83.13
2018-03-06T00:41:42.246Z,82.47
2018-03-06T00:42:42.264Z,82.75
2018-03-06T00:43:42.286Z,82.85
2018-03-06T00:44:42.298Z,82.85
2018-03-06T00:45:42.322Z,82.56
2018-03-06T00:46:42.590Z,83.23
2018-03-06T00:47:42.361Z,83.23
2018-03-06T00:48:42.381Z,83.51
2018-03-06T00:49:42.399Z,82.94
2018-03-06T00:50:42.416Z,83.13
2018-03-06T00:51:42.425Z,83.04
2018-03-06T00:52:42.447Z,83.18
2018-03-06T00:53:42.468Z,83.04
2018-03-06T00:54:42.489Z,83.09
2018-03-06T00:55:42.513Z,83.28
2018-03-06T00:56:42.523Z,83.85
2018-03-06T00:57:42.539Z,83.66
2018-03-06T00:58:42.559Z,84.13
2018-03-06T00:59:42.575Z,84.13
2018-03-06T01:00:42.600Z,84.42
2018-03-06T01:01:42.612Z,84.51
2018-03-06T01:02:42.625Z,84.80
2018-03-06T01:03:42.646Z,84.80
2018-03-06T01:04:42.666Z,85.36
2018-03-06T01:05:42.687Z,84.99
2018-03-06T01:06:42.700Z,85.46
2018-03-06T01:07:42.718Z,85.46
2018-03-06T01:08:42.744Z,85.27
2018-03-06T01:09:42.756Z,85.74
2018-03-06T01:10:42.775Z,86.03
2018-03-06T01:11:42.795Z,86.22
2018-03-06T01:12:42.811Z,86.31
2018-03-06T01:13:42.829Z,86.50
2018-03-06T01:14:42.852Z,86.22
2018-03-06T01:15:42.864Z,86.03
2018-03-06T01:16:42.884Z,85.74
2018-03-06T01:17:42.899Z,86.03
2018-03-06T01:18:42.923Z,85.65
2018-03-06T01:19:42.934Z,84.89
2018-03-06T01:20:42.962Z,84.23
2018-03-06T01:21:42.975Z,84.51
2018-03-06T01:22:42.994Z,84.13
2018-03-06T01:23:43.263Z,83.85
2018-03-06T01:24:43.030Z,83.85
2018-03-06T01:25:43.045Z,84.42
2018-03-06T01:26:43.067Z,84.61
2018-03-06T01:27:43.089Z,85.04
2018-03-06T01:28:43.104Z,85.55
2018-03-06T01:29:43.120Z,85.46
2018-03-06T01:30:43.139Z,85.74
2018-03-06T01:31:43.152Z,85.93
2018-03-06T01:32:43.175Z,85.46
2018-03-06T01:33:43.195Z,84.80
2018-03-06T01:34:43.209Z,84.42
2018-03-06T01:35:43.225Z,84.61
2018-03-06T01:36:43.246Z,83.94
2018-03-06T01:37:43.264Z,83.85
2018-03-06T01:38:43.278Z,83.75
2018-03-06T01:39:43.298Z,84.13
2018-03-06T01:40:43.318Z,83.66
2018-03-06T01:41:43.586Z,83.85
2018-03-06T01:42:43.351Z,83.94
2018-03-06T01:43:43.368Z,83.37
2018-03-06T01:44:43.389Z,83.47
2018-03-06T01:45:43.404Z,82.90
2018-03-06T01:46:43.423Z,83.00
2018-03-06T01:47:43.443Z,83.18
2018-03-06T01:48:43.463Z,83.18
2018-03-06T01:49:43.483Z,82.33
2018-03-06T01:50:43.503Z,82.14
2018-03-06T01:51:43.513Z,82.33
2018-03-06T01:52:43.531Z,83.09
2018-03-06T01:53:43.547Z,83.18
2018-03-06T01:54:43.566Z,83.66
2018-03-06T01:55:43.583Z,83.90
2018-03-06T01:56:43.602Z,84.47
2018-03-06T01:57:43.875Z,84.23
2018-03-06T01:58:43.637Z,84.61
2018-03-06T01:59:43.653Z,84.42
2018-03-06T02:00:43.673Z,84.75
2018-03-06T02:01:43.692Z,84.75
2018-03-06T02:02:43.715Z,85.42
2018-03-06T02:03:43.728Z,85.23
2018-03-06T02:04:43.746Z,85.42
2018-03-06T02:05:43.768Z,85.23
2018-03-06T02:06:43.786Z,84.75
2018-03-06T02:07:43.799Z,84.66
2018-03-06T02:08:43.817Z,84.75
2018-03-06T02:09:43.837Z,85.13
2018-03-06T02:10:43.856Z,85.61
2018-03-06T02:11:43.870Z,85.42
2018-03-06T02:12:43.888Z,85.42
2018-03-06T02:13:43.906Z,85.13
2018-03-06T02:14:44.064Z,85.42
2018-03-06T02:15:43.937Z,85.51
2018-03-06T02:16:43.956Z,86.08
2018-03-06T02:17:43.979Z,86.18
2018-03-06T02:18:43.991Z,86.46
2018-03-06T02:19:44.014Z,86.83
2018-03-06T02:20:44.036Z,86.93
2018-03-06T02:21:44.055Z,86.79
2018-03-06T02:22:44.070Z,86.89
2018-03-06T02:23:44.080Z,87.08
2018-03-06T02:24:44.101Z,87.74
2018-03-06T02:25:44.118Z,87.27
2018-03-06T02:26:44.135Z,87.46
2018-03-06T02:27:44.153Z,87.36
2018-03-06T02:28:44.171Z,87.17
2018-03-06T02:29:44.188Z,87.40
2018-03-06T02:30:44.208Z,87.31
2018-03-06T02:31:44.224Z,87.12
2018-03-06T02:32:44.243Z,86.18
2018-03-06T02:33:44.263Z,86.27
2018-03-06T02:34:44.279Z,86.36
2018-03-06T02:35:44.291Z,86.18
2018-03-06T02:36:44.311Z,85.70
2018-03-06T02:37:44.330Z,86.08
2018-03-06T02:38:44.348Z,86.36
2018-03-06T02:39:44.366Z,86.27
2018-03-06T02:40:44.381Z,86.27
2018-03-06T02:41:44.401Z,85.80
2018-03-06T02:42:44.415Z,86.46
2018-03-06T02:43:44.435Z,86.46
2018-03-06T02:44:44.451Z,86.27
2018-03-06T02:45:44.473Z,85.80
2018-03-06T02:46:44.489Z,86.18
2018-03-06T02:47:44.506Z,85.80
2018-03-06T02:48:44.521Z,85.80
2018-03-06T02:49:44.539Z,85.89
2018-03-06T02:50:44.557Z,86.08
2018-03-06T02:51:44.579Z,86.08
2018-03-06T02:52:44.594Z,86.27
2018-03-06T02:53:44.609Z,85.61
2018-03-06T02:54:44.624Z,85.23
2018-03-06T02:55:44.644Z,85.13
2018-03-06T02:56:44.660Z,84.75
2018-03-06T02:57:44.684Z,85.32
2018-03-06T02:58:44.694Z,86.27
2018-03-06T02:59:44.717Z,85.80
2018-03-06T03:00:44.729Z,85.32
2018-03-06T03:01:44.755Z,84.75
2018-03-06T03:02:44.769Z,84.38
2018-03-06T03:03:44.787Z,84.38
2018-03-06T03:04:44.799Z,84.47
2018-03-06T03:05:44.921Z,84.47
2018-03-06T03:06:44.837Z,84.56
2018-03-06T03:07:44.854Z,84.75
2018-03-06T03:08:44.871Z,84.47
2018-03-06T03:09:44.888Z,83.62
2018-03-06T03:10:44.904Z,83.24
2018-03-06T03:11:44.924Z,83.05
2018-03-06T03:12:44.939Z,82.67
2018-03-06T03:13:44.959Z,82.48
2018-03-06T03:14:44.974Z,82.86
2018-03-06T03:15:44.993Z,82.95
2018-03-06T03:16:45.008Z,83.52
2018-03-06T03:17:45.282Z,83.43
2018-03-06T03:18:45.048Z,83.71
2018-03-06T03:19:45.062Z,83.05
2018-03-06T03:20:45.080Z,82.76
2018-03-06T03:21:45.098Z,81.86
2018-03-06T03:22:45.122Z,82.20
2018-03-06T03:23:45.437Z,82.48
2018-03-06T03:24:45.155Z,82.57
2018-03-06T03:25:45.167Z,82.81
2018-03-06T03:26:45.183Z,82.62
2018-03-06T03:27:45.198Z,82.48
2018-03-06T03:28:45.224Z,82.81
2018-03-06T03:29:45.232Z,82.48
2018-03-06T03:30:45.255Z,82.39
2018-03-06T03:31:45.268Z,82.48
2018-03-06T03:32:45.287Z,83.14
2018-03-06T03:33:45.302Z,82.95
2018-03-06T03:34:45.317Z,83.52
2018-03-06T03:35:45.337Z,83.43
2018-03-06T03:36:45.356Z,83.33
2018-03-06T03:37:45.374Z,83.14
2018-03-06T03:38:45.386Z,83.52
2018-03-06T03:39:45.408Z,83.14
2018-03-06T03:40:45.429Z,84.19
2018-03-06T03:41:45.442Z,84.09
2018-03-06T03:42:45.459Z,83.81
2018-03-06T03:43:45.477Z,82.95
2018-03-06T03:44:45.496Z,82.39
2018-03-06T03:45:45.511Z,82.20
2018-03-06T03:46:45.527Z,82.86
2018-03-06T03:47:45.547Z,83.24
2018-03-06T03:48:45.567Z,83.24
2018-03-06T03:49:45.582Z,83.81
2018-03-06T03:50:45.600Z,83.81
2018-03-06T03:51:45.617Z,84.00
2018-03-06T03:52:45.634Z,84.19
2018-03-06T03:53:45.646Z,84.28
2018-03-06T03:54:45.667Z,84.28
2018-03-06T03:55:45.685Z,84.28
2018-03-06T03:56:45.705Z,83.90
2018-03-06T03:57:45.719Z,83.52
2018-03-06T03:58:45.739Z,83.81
2018-03-06T03:59:46.001Z,84.09
2018-03-06T04:00:45.766Z,84.00
2018-03-06T04:01:45.785Z,84.14
2018-03-06T04:02:45.799Z,84.19
2018-03-06T04:03:45.823Z,84.47
2018-03-06T04:04:45.835Z,84.66
2018-03-06T04:05:45.859Z,84.56
2018-03-06T04:06:45.870Z,84.66
2018-03-06T04:07:45.891Z,83.71
2018-03-06T04:08:45.907Z,83.05
2018-03-06T04:09:45.922Z,82.67
2018-03-06T04:10:45.936Z,82.29
2018-03-06T04:11:45.955Z,82.29
2018-03-06T04:12:45.974Z,82.95
2018-03-06T04:13:45.999Z,82.76
2018-03-06T04:14:46.261Z,83.14
2018-03-06T04:15:46.025Z,82.86
2018-03-06T04:16:46.040Z,82.86
2018-03-06T04:17:46.056Z,82.57
2018-03-06T04:18:46.074Z,82.20
2018-03-06T04:19:46.090Z,82.67
2018-03-06T04:20:46.115Z,82.48
2018-03-06T04:21:46.128Z,82.48
2018-03-06T04:22:46.146Z,82.48
2018-03-06T04:23:46.163Z,82.10
2018-03-06T04:24:46.174Z,82.20
2018-03-06T04:25:46.194Z,81.92
2018-03-06T04:26:46.217Z,82.39
2018-03-06T04:27:46.233Z,82.48
2018-03-06T04:28:46.248Z,82.67
2018-03-06T04:29:46.269Z,82.67
2018-03-06T04:30:46.283Z,83.62
2018-03-06T04:31:46.295Z,83.33
2018-03-06T04:32:46.314Z,83.05
2018-03-06T04:33:46.328Z,82.95
2018-03-06T04:34:46.353Z,83.14
2018-03-06T04:35:46.368Z,82.29
2018-03-06T04:36:46.378Z,82.95
2018-03-06T04:37:46.404Z,82.57
2018-03-06T04:38:46.418Z,82.76
2018-03-06T04:39:46.431Z,82.67
2018-03-06T04:40:46.448Z,82.20
2018-03-06T04:41:46.465Z,82.76
2018-03-06T04:42:46.486Z,82.67
2018-03-06T04:43:46.500Z,82.76
2018-03-06T04:44:46.523Z,83.43
2018-03-06T04:45:46.538Z,83.39
2018-03-06T04:46:46.552Z,83.48
2018-03-06T04:47:46.572Z,83.24
2018-03-06T04:48:46.588Z,83.05
2018-03-06T04:49:46.606Z,83.62
2018-03-06T04:50:46.618Z,83.05
2018-03-06T04:51:46.634Z,82.67
2018-03-06T04:52:46.657Z,83.14
2018-03-06T04:53:46.671Z,82.86
2018-03-06T04:54:46.689Z,82.57
2018-03-06T04:55:46.702Z,82.67
2018-03-06T04:56:46.716Z,82.86
2018-03-06T04:57:46.743Z,83.10
2018-03-06T04:58:46.752Z,83.05
2018-03-06T04:59:46.768Z,82.39
2018-03-06T05:00:46.787Z,82.48
2018-03-06T05:01:46.806Z,82.48
2018-03-06T05:02:46.824Z,82.76
2018-03-06T05:03:46.837Z,82.67
2018-03-06T05:04:46.854Z,82.67
2018-03-06T05:05:46.878Z,83.01
2018-03-06T05:06:46.887Z,83.14
2018-03-06T05:07:46.908Z,83.05
2018-03-06T05:08:46.922Z,82.29
2018-03-06T05:09:46.941Z,82.29
2018-03-06T05:10:46.953Z,82.01
2018-03-06T05:11:46.973Z,82.48
2018-03-06T05:12:46.986Z,82.76
2018-03-06T05:13:47.009Z,82.53
2018-03-06T05:14:47.021Z,83.10
2018-03-06T05:15:47.037Z,83.10
2018-03-06T05:16:47.056Z,83.10
2018-03-06T05:17:47.072Z,83.48
2018-03-06T05:18:47.094Z,83.01
2018-03-06T05:19:47.121Z,83.10
2018-03-06T05:20:47.127Z,83.39
2018-03-06T05:21:47.143Z,83.39
2018-03-06T05:22:47.157Z,83.86
2018-03-06T05:23:47.174Z,84.42
2018-03-06T05:24:47.191Z,83.76
2018-03-06T05:25:47.210Z,83.58
2018-03-06T05:26:47.249Z,84.05
2018-03-06T05:27:47.243Z,84.05
2018-03-06T05:28:47.256Z,83.67
2018-03-06T05:29:47.276Z,83.58
2018-03-06T05:30:47.296Z,83.76
2018-03-06T05:31:47.306Z,83.58
2018-03-06T05:32:47.322Z,83.58
2018-03-06T05:33:47.344Z,83.20
2018-03-06T05:34:47.357Z,83.01
2018-03-06T05:35:47.377Z,83.58
2018-03-06T05:36:47.387Z,83.10
2018-03-06T05:37:47.410Z,83.39
2018-03-06T05:38:47.426Z,83.48
2018-03-06T05:39:47.445Z,83.24
2018-03-06T05:40:47.460Z,82.57
2018-03-06T05:41:47.475Z,82.01
2018-03-06T05:42:47.495Z,81.72
2018-03-06T05:43:47.513Z,81.92
2018-03-06T05:44:47.532Z,82.48
2018-03-06T05:45:47.546Z,83.01
2018-03-06T05:46:47.562Z,82.44
2018-03-06T05:47:47.574Z,82.82
2018-03-06T05:48:47.591Z,83.48
2018-03-06T05:49:47.610Z,83.29
2018-03-06T05:50:47.627Z,83.95
2018-03-06T05:51:47.741Z,83.76
2018-03-06T05:52:47.660Z,84.42
2018-03-06T05:53:47.675Z,84.14
2018-03-06T05:54:47.694Z,83.86
2018-03-06T05:55:47.710Z,84.05
2018-03-06T05:56:47.724Z,83.39
2018-03-06T05:57:47.743Z,82.91
2018-03-06T05:58:47.760Z,82.91
2018-03-06T05:59:47.775Z,83.01
2018-03-06T06:00:47.791Z,83.10
2018-03-06T06:01:48.065Z,83.39
2018-03-06T06:02:47.829Z,83.20
2018-03-06T06:03:47.840Z,83.48
2018-03-06T06:04:47.856Z,83.58
2018-03-06T06:05:47.874Z,83.48
2018-03-06T06:06:47.887Z,83.20
2018-03-06T06:07:47.916Z,83.29
2018-03-06T06:08:47.924Z,83.76
2018-03-06T06:09:47.942Z,84.23
2018-03-06T06:10:47.958Z,84.23
2018-03-06T06:11:48.222Z,84.05
2018-03-06T06:12:47.994Z,83.86
2018-03-06T06:13:48.009Z,83.76
2018-03-06T06:14:48.023Z,84.23
2018-03-06T06:15:48.044Z,83.76
2018-03-06T06:16:48.063Z,83.67
2018-03-06T06:17:48.076Z,83.95
2018-03-06T06:18:48.088Z,83.95
2018-03-06T06:19:48.108Z,83.67
2018-03-06T06:20:48.122Z,83.67
2018-03-06T06:21:48.146Z,83.10
2018-03-06T06:22:48.158Z,83.58
2018-03-06T06:23:48.172Z,83.39
2018-03-06T06:24:48.188Z,83.10
2018-03-06T06:25:48.206Z,83.20
2018-03-06T06:26:48.230Z,83.20
2018-03-06T06:27:48.237Z,83.10
2018-03-06T06:28:48.260Z,82.44
2018-03-06T06:29:48.276Z,82.53
2018-03-06T06:30:48.288Z,83.10
2018-03-06T06:31:48.308Z,82.53
2018-03-06T06:32:48.326Z,82.34
2018-03-06T06:33:48.337Z,82.91
2018-03-06T06:34:48.356Z,82.63
2018-03-06T06:35:48.377Z,82.72
2018-03-06T06:36:48.391Z,82.91
2018-03-06T06:37:48.406Z,82.72
2018-03-06T06:38:48.426Z,83.10
2018-03-06T06:39:48.442Z,83.29
2018-03-06T06:40:48.457Z,82.72
2018-03-06T06:41:48.476Z,82.72
2018-03-06T06:42:48.491Z,82.82
2018-03-06T06:43:48.508Z,82.39
2018-03-06T06:44:48.526Z,82.39
2018-03-06T06:45:48.541Z,82.57
2018-03-06T06:46:48.571Z,82.20
2018-03-06T06:47:48.570Z,81.15
2018-03-06T06:48:48.593Z,81.25
2018-03-06T06:49:48.611Z,81.34
2018-03-06T06:50:48.625Z,81.15
2018-03-06T06:51:48.640Z,81.15
2018-03-06T06:52:48.656Z,80.68
2018-03-06T06:53:48.922Z,80.96
2018-03-06T06:54:48.686Z,80.40
2018-03-06T06:55:48.707Z,79.93
2018-03-06T06:56:48.729Z,79.93
2018-03-06T06:57:48.746Z,79.74
2018-03-06T06:58:48.762Z,79.26
2018-03-06T06:59:48.780Z,79.55
2018-03-06T07:00:48.791Z,79.55
2018-03-06T07:01:48.811Z,79.36
2018-03-06T07:02:48.825Z,78.79
2018-03-06T07:03:48.844Z,78.73
2018-03-06T07:04:48.863Z,78.69
2018-03-06T07:05:48.878Z,78.50
2018-03-06T07:06:48.894Z,78.41
2018-03-06T07:07:48.920Z,78.22
2018-03-06T07:08:48.929Z,77.97
2018-03-06T07:09:48.945Z,77.97
2018-03-06T07:10:48.963Z,77.84
2018-03-06T07:11:48.974Z,77.84
2018-03-06T07:12:48.997Z,78.07
2018-03-06T07:13:49.014Z,77.94
2018-03-06T07:14:49.034Z,77.75
2018-03-06T07:15:49.066Z,78.31
2018-03-06T07:16:49.060Z,78.22
2018-03-06T07:17:49.081Z,78.41
2018-03-06T07:18:49.098Z,78.31
2018-03-06T07:19:49.116Z,77.88
2018-03-06T07:20:49.129Z,77.78
2018-03-06T07:21:49.144Z,77.78
2018-03-06T07:22:49.159Z,77.59
2018-03-06T07:23:49.182Z,77.50
2018-03-06T07:24:49.202Z,77.59
2018-03-06T07:25:49.214Z,77.50
2018-03-06T07:26:49.230Z,77.12
2018-03-06T07:27:49.250Z,77.22
2018-03-06T07:28:49.271Z,77.03
2018-03-06T07:29:49.288Z,77.22
2018-03-06T07:30:49.298Z,77.40
2018-03-06T07:31:49.316Z,76.74
2018-03-06T07:32:49.335Z,76.65
2018-03-06T07:33:49.356Z,76.46
2018-03-06T07:34:49.368Z,76.65
2018-03-06T07:35:49.384Z,76.17
2018-03-06T07:36:49.398Z,76.36
2018-03-06T07:37:49.417Z,76.27
2018-03-06T07:38:49.438Z,76.17
2018-03-06T07:39:49.456Z,75.98
2018-03-06T07:40:49.472Z,75.98
2018-03-06T07:41:49.512Z,76.08
2018-03-06T07:42:49.507Z,76.08
2018-03-06T07:43:49.523Z,75.51
2018-03-06T07:44:49.537Z,74.85
2018-03-06T07:45:49.553Z,74.56
2018-03-06T07:46:49.574Z,74.75
2018-03-06T07:47:49.590Z,74.85
2018-03-06T07:48:49.607Z,73.99
2018-03-06T07:49:49.627Z,73.71
2018-03-06T07:50:49.645Z,74.18
2018-03-06T07:51:49.658Z,74.18
2018-03-06T07:52:49.680Z,73.99
2018-03-06T07:53:49.693Z,73.90
2018-03-06T07:54:49.707Z,74.18
2018-03-06T07:55:49.728Z,74.75
2018-03-06T07:56:49.747Z,74.47
2018-03-06T07:57:49.761Z,73.99
2018-03-06T07:58:49.779Z,73.61
2018-03-06T07:59:49.798Z,73.61
2018-03-06T08:00:49.818Z,73.80
2018-03-06T08:01:49.832Z,73.61
2018-03-06T08:02:49.866Z,73.90
2018-03-06T08:03:49.875Z,73.46
2018-03-06T08:04:49.885Z,73.18
2018-03-06T08:05:49.902Z,73.37
2018-03-06T08:06:50.017Z,72.42
2018-03-06T08:07:49.939Z,72.42
2018-03-06T08:08:49.951Z,71.95
2018-03-06T08:09:49.975Z,71.47
2018-03-06T08:10:49.996Z,71.66
2018-03-06T08:11:50.256Z,71.95
2018-03-06T08:12:50.026Z,71.38
2018-03-06T08:13:50.046Z,71.47
2018-03-06T08:14:50.067Z,71.28
2018-03-06T08:15:50.077Z,71.09
2018-03-06T08:16:50.092Z,71.38
2018-03-06T08:17:50.116Z,70.90
2018-03-06T08:18:50.133Z,71.00
2018-03-06T08:19:50.151Z,70.62
2018-03-06T08:20:50.166Z,71.00
2018-03-06T08:21:50.181Z,70.81
2018-03-06T08:22:50.200Z,70.15
2018-03-06T08:23:50.217Z,70.43
2018-03-06T08:24:50.236Z,71.09
2018-03-06T08:25:50.259Z,70.34
2018-03-06T08:26:50.270Z,70.15
2018-03-06T08:27:50.290Z,70.05
2018-03-06T08:28:50.313Z,69.67
2018-03-06T08:29:50.335Z,69.38
2018-03-06T08:30:50.340Z,69.57
2018-03-06T08:31:50.367Z,69.42
2018-03-06T08:32:50.391Z,69.10
2018-03-06T08:33:50.395Z,69.13
2018-03-06T08:34:50.414Z,69.23
2018-03-06T08:35:50.438Z,69.23
2018-03-06T08:36:50.454Z,68.76
2018-03-06T08:37:50.470Z,69.13
2018-03-06T08:38:50.485Z,69.13
2018-03-06T08:39:50.505Z,68.85
2018-03-06T08:40:50.520Z,68.66
2018-03-06T08:41:50.539Z,68.57
2018-03-06T08:42:50.559Z,68.29
2018-03-06T08:43:50.575Z,68.00
2018-03-06T08:44:50.602Z,68.10
2018-03-06T08:45:50.609Z,68.00
2018-03-06T08:46:50.629Z,68.10
2018-03-06T08:47:50.650Z,67.43
2018-03-06T08:48:50.669Z,67.05
2018-03-06T08:49:50.689Z,67.05
2018-03-06T08:50:50.700Z,67.14
2018-03-06T08:51:50.972Z,67.62
2018-03-06T08:52:50.743Z,68.00
2018-03-06T08:53:50.762Z,68.00
2018-03-06T08:54:50.775Z,68.00
2018-03-06T08:55:50.790Z,67.90
2018-03-06T08:56:50.810Z,68.19
2018-03-06T08:57:50.829Z,67.71
2018-03-06T08:58:50.853Z,68.66
2018-03-06T08:59:50.869Z,68.95
2018-03-06T09:00:50.885Z,69.80
2018-03-06T09:01:50.904Z,69.42
2018-03-06T09:02:50.920Z,68.48
2018-03-06T09:03:50.944Z,69.42
2018-03-06T09:04:50.959Z,68.66
2018-03-06T09:05:50.982Z,67.62
2018-03-06T09:06:51.002Z,68.00
2018-03-06T09:07:51.016Z,67.24
2018-03-06T09:08:51.030Z,68.00
2018-03-06T09:09:51.048Z,66.77
2018-03-06T09:10:51.072Z,67.37
2018-03-06T09:11:51.094Z,67.08
2018-03-06T09:12:51.107Z,67.46
2018-03-06T09:13:51.227Z,66.61
2018-03-06T09:14:51.146Z,65.28
2018-03-06T09:15:51.159Z,65.28
2018-03-06T09:16:51.181Z,64.33
2018-03-06T09:17:51.195Z,64.52
2018-03-06T09:18:51.219Z,64.05
2018-03-06T09:19:51.237Z,64.33
2018-03-06T09:20:51.257Z,64.33
2018-03-06T09:21:51.267Z,64.43
2018-03-06T09:22:51.290Z,63.95
2018-03-06T09:23:51.310Z,63.76
2018-03-06T09:24:51.324Z,63.67
2018-03-06T09:25:51.346Z,63.76
2018-03-06T09:26:51.358Z,63.48
2018-03-06T09:27:51.386Z,63.39
2018-03-06T09:28:51.402Z,63.01
2018-03-06T09:29:51.420Z,61.77
2018-03-06T09:30:51.466Z,63.48
2018-03-06T09:31:51.456Z,63.39
2018-03-06T09:32:51.494Z,63.01
2018-03-06T09:33:51.500Z,63.01
2018-03-06T09:34:51.511Z,62.72
2018-03-06T09:35:51.531Z,62.34
2018-03-06T09:36:51.553Z,62.15
2018-03-06T09:37:51.572Z,61.68
2018-03-06T09:38:51.591Z,62.05
2018-03-06T09:39:51.604Z,61.58
2018-03-06T09:40:51.626Z,61.68
2018-03-06T09:41:51.646Z,60.95
2018-03-06T09:42:51.667Z,61.04
2018-03-06T09:43:51.680Z,61.14
2018-03-06T09:44:51.702Z,61.20
2018-03-06T09:45:51.715Z,61.42
2018-03-06T09:46:51.737Z,61.14
2018-03-06T09:47:51.756Z,60.00
2018-03-06T09:48:51.776Z,60.47
2018-03-06T09:49:51.796Z,60.19
2018-03-06T09:50:51.810Z,60.00
2018-03-06T09:51:51.835Z,60.47
2018-03-06T09:52:51.863Z,60.66
2018-03-06T09:53:51.871Z,60.00
2018-03-06T09:54:51.896Z,60.28
2018-03-06T09:55:51.915Z,59.52
2018-03-06T09:56:51.929Z,59.33
2018-03-06T09:57:51.950Z,59.71
2018-03-06T09:58:51.968Z,59.33
2018-03-06T09:59:51.983Z,59.33
2018-03-06T10:00:52.009Z,59.52
2018-03-06T10:01:52.024Z,59.81
2018-03-06T10:02:52.047Z,59.91
2018-03-06T10:04:52.077Z,59.17
2018-03-06T10:05:52.106Z,58.29
2018-03-06T10:06:52.217Z,58.86
2018-03-06T10:07:52.136Z,58.70
2018-03-06T10:08:52.153Z,58.89
2018-03-06T10:09:52.188Z,59.05
2018-03-06T10:10:52.197Z,58.61
2018-03-06T10:11:52.465Z,58.03
2018-03-06T10:12:52.238Z,58.51
2018-03-06T10:13:52.257Z,58.41
2018-03-06T10:14:52.270Z,57.09
2018-03-06T10:15:52.292Z,57.46
2018-03-06T10:16:52.316Z,57.84
2018-03-06T10:17:52.339Z,57.75
2018-03-06T10:18:52.350Z,57.65
2018-03-06T10:19:52.373Z,57.28
2018-03-06T10:20:52.393Z,57.65
2018-03-06T10:21:52.660Z,57.09
2018-03-06T10:22:52.430Z,56.89
2018-03-06T10:23:52.489Z,56.80
2018-03-06T10:24:52.465Z,56.42
2018-03-06T10:25:52.485Z,56.80
2018-03-06T10:26:52.509Z,57.46
2018-03-06T10:27:52.527Z,57.09
2018-03-06T10:28:52.545Z,57.46
2018-03-06T10:29:52.564Z,57.18
2018-03-06T10:30:52.583Z,57.75
2018-03-06T10:31:52.605Z,57.65
2018-03-06T10:32:52.625Z,57.28
2018-03-06T10:33:52.643Z,56.70
2018-03-06T10:34:52.664Z,56.32
2018-03-06T10:35:52.684Z,56.42
2018-03-06T10:36:52.719Z,56.73
2018-03-06T10:37:52.725Z,56.26
2018-03-06T10:38:52.747Z,55.11
2018-03-06T10:39:52.767Z,55.02
2018-03-06T10:40:52.784Z,55.11
2018-03-06T10:41:52.799Z,55.21
2018-03-06T10:42:52.817Z,54.93
2018-03-06T10:43:52.893Z,54.48
2018-03-06T10:44:52.858Z,54.10
2018-03-06T10:45:52.883Z,53.05
2018-03-06T10:46:52.910Z,53.15
2018-03-06T10:47:52.919Z,53.53
2018-03-06T10:48:52.952Z,54.19
2018-03-06T10:49:52.958Z,53.72
2018-03-06T10:50:52.982Z,53.05
2018-03-06T10:51:53.006Z,53.05
2018-03-06T10:52:53.023Z,52.76
2018-03-06T10:53:53.039Z,53.05
2018-03-06T10:54:53.065Z,53.08
2018-03-06T10:55:53.084Z,52.58
2018-03-06T10:56:53.111Z,52.10
2018-03-06T10:57:53.122Z,51.91
2018-03-06T10:58:53.143Z,52.22
2018-03-06T10:59:53.167Z,52.22
2018-03-06T11:00:53.191Z,51.56
2018-03-06T11:01:53.217Z,51.39
2018-03-06T11:02:53.230Z,50.09
2018-03-06T11:03:53.253Z,48.37
2018-03-06T11:04:53.281Z,47.34
2018-03-06T11:05:53.311Z,45.58
2018-03-06T11:06:53.313Z,43.49
2018-03-06T11:07:53.342Z,42.34
2018-03-06T11:08:53.358Z,42.63
2018-03-06T11:09:53.382Z,41.14
2018-03-06T11:10:53.407Z,39.71
2018-03-06T11:11:53.425Z,39.61
2018-03-06T11:12:53.454Z,39.06
2018-03-06T11:13:53.472Z,38.20
2018-03-06T11:14:53.500Z,37.90
2018-03-06T11:15:53.525Z,38.66
2018-03-06T11:16:53.541Z,38.85
2018-03-06T11:17:53.572Z,39.14
2018-03-06T11:18:53.604Z,38.87
2018-03-06T11:19:53.618Z,38.10
2018-03-06T11:20:53.639Z,37.55
2018-03-06T11:21:53.670Z,37.82
2018-03-06T11:22:53.695Z,36.52
2018-03-06T11:23:53.719Z,35.00
2018-03-06T11:24:53.743Z,33.03
2018-03-06T11:25:53.770Z,32.17
2018-03-06T11:26:53.797Z,31.71
2018-03-06T11:27:53.811Z,31.32
2018-03-06T11:28:53.844Z,30.67
2018-03-06T11:29:53.902Z,29.91
2018-03-06T11:30:53.891Z,29.06
2018-03-06T11:31:53.919Z,27.36
2018-03-06T11:32:53.946Z,27.45
2018-03-06T11:33:53.983Z,26.59
2018-03-06T11:34:54.002Z,26.31
2018-03-06T11:35:54.030Z,26.68
2018-03-06T11:36:54.056Z,25.74
2018-03-06T11:37:54.080Z,25.35
2018-03-06T11:38:54.114Z,25.34
2018-03-06T11:39:54.138Z,26.31
2018-03-06T11:40:54.169Z,26.03
2018-03-06T11:41:54.198Z,25.73
2018-03-06T11:42:54.222Z,24.99
2018-03-06T11:43:54.261Z,24.49
2018-03-06T11:44:54.285Z,26.30
2018-03-06T11:45:54.310Z,25.64
2018-03-06T11:46:54.347Z,24.61
2018-03-06T11:47:54.366Z,23.66
2018-03-06T11:48:54.395Z,24.03
2018-03-06T11:49:54.423Z,23.92
2018-03-06T11:50:54.455Z,24.79
2018-03-06T11:51:54.482Z,24.77
2018-03-06T11:52:54.515Z,25.99
2018-03-06T11:53:54.543Z,27.33
2018-03-06T11:54:54.576Z,27.15
2018-03-06T11:55:54.612Z,26.60
2018-03-06T11:56:54.640Z,25.07
2018-03-06T11:57:54.664Z,24.14
2018-03-06T11:58:54.701Z,23.38
2018-03-06T11:59:54.728Z,22.05
2018-03-06T12:00:54.757Z,23.80
2018-03-06T12:01:54.834Z,20.43
2018-03-06T12:02:54.815Z,19.49
2018-03-06T12:03:54.882Z,18.32
2018-03-06T12:04:54.873Z,18.63
2018-03-06T12:05:54.913Z,18.53
2018-03-06T12:06:54.944Z,18.72
2018-03-06T12:07:54.970Z,19.38
2018-03-06T12:08:55.004Z,20.43
2018-03-06T12:09:55.033Z,20.05
2018-03-06T12:10:55.065Z,18.52
2018-03-06T12:11:55.101Z,18.15
2018-03-06T12:12:55.129Z,17.47
2018-03-06T12:13:55.161Z,18.04
2018-03-06T12:14:55.193Z,18.62
2018-03-06T12:15:55.230Z,18.71
2018-03-06T12:16:55.262Z,19.46
2018-03-06T12:17:55.298Z,19.27
2018-03-06T12:18:55.332Z,19.47
2018-03-06T12:19:55.362Z,20.42
2018-03-06T12:20:55.398Z,21.26
2018-03-06T12:21:55.421Z,22.77
2018-03-06T12:22:55.456Z,23.36
2018-03-06T12:23:55.494Z,23.36
2018-03-06T12:24:55.525Z,24.04
2018-03-06T12:25:55.553Z,22.79
2018-03-06T12:26:55.585Z,22.42
2018-03-06T12:27:55.618Z,22.03
2018-03-06T12:28:55.667Z,22.22
2018-03-06T12:29:55.683Z,21.94
2018-03-06T12:30:55.721Z,21.56
2018-03-06T12:31:55.755Z,20.81
2018-03-06T12:32:55.793Z,19.86
2018-03-06T12:33:55.818Z,20.03
2018-03-06T12:34:55.852Z,21.26
2018-03-06T12:35:55.885Z,22.03
2018-03-06T12:36:55.917Z,21.84
2018-03-06T12:37:55.951Z,21.94
2018-03-06T12:38:55.977Z,21.75
2018-03-06T12:39:56.018Z,20.51
2018-03-06T12:40:56.045Z,20.43
2018-03-06T12:41:56.081Z,19.76
2018-03-06T12:42:56.154Z,19.18
2018-03-06T12:43:56.146Z,18.53
2018-03-06T12:44:56.183Z,18.80
2018-03-06T12:45:56.221Z,18.71
2018-03-06T12:46:56.250Z,18.62
2018-03-06T12:47:56.282Z,19.10
2018-03-06T12:48:56.316Z,19.26
2018-03-06T12:49:56.346Z,20.04
2018-03-06T12:50:56.383Z,20.79
2018-03-06T12:51:56.417Z,21.00
2018-03-06T12:52:56.442Z,19.57
2018-03-06T12:53:56.482Z,19.20